createdAt,value
2023-05-17T00:01:01.281Z,10.20
2023-05-17T00:03:48.501Z,10.20
2023-05-17T00:06:36.170Z,10.20
2023-05-17T00:09:23.273Z,10.20
2023-05-17T00:12:11.633Z,10.20
2023-05-17T00:14:58.920Z,10.20
2023-05-17T00:17:46.187Z,10.20
2023-05-17T00:20:34.757Z,10.20
2023-05-17T00:23:21.952Z,10.20
2023-05-17T00:26:09.300Z,10.10
2023-05-17T00:28:58.077Z,10.10
2023-05-17T00:31:45.088Z,10.10
2023-05-17T00:34:32.008Z,10.10
2023-05-17T00:37:18.975Z,10.10
2023-05-17T00:40:06.616Z,10.10
2023-05-17T00:42:53.519Z,10.00
2023-05-17T00:45:44.839Z,10.00
2023-05-17T00:48:32.349Z,10.00
2023-05-17T00:51:21.462Z,10.00
2023-05-17T00:54:08.448Z,10.00
2023-05-17T00:56:57.192Z,10.00
2023-05-17T00:59:45.882Z,10.00
2023-05-17T01:02:34.638Z,9.90
2023-05-17T01:05:22.227Z,9.90
2023-05-17T01:08:09.469Z,9.90
2023-05-17T01:11:09.320Z,9.90
2023-05-17T01:14:03.790Z,9.90
2023-05-17T01:16:57.167Z,9.80
2023-05-17T01:19:58.900Z,9.80
2023-05-17T01:22:53.310Z,9.80
2023-05-17T01:25:56.938Z,9.80
2023-05-17T01:28:48.429Z,9.80
2023-05-17T01:31:37.274Z,9.80
2023-05-17T01:34:27.694Z,9.80
2023-05-17T01:37:14.949Z,9.80
2023-05-17T01:40:01.934Z,9.80
2023-05-17T01:42:54.394Z,9.80
2023-05-17T01:45:54.617Z,9.70
2023-05-17T01:48:50.798Z,9.70
2023-05-17T01:51:46.167Z,9.70
2023-05-17T01:54:38.542Z,9.70
2023-05-17T01:57:33.016Z,9.70
2023-05-17T02:00:23.737Z,9.70
2023-05-17T02:03:19.183Z,9.60
2023-05-17T02:06:08.900Z,9.60
2023-05-17T02:08:56.060Z,9.60
2023-05-17T02:11:43.310Z,9.60
2023-05-17T02:14:30.353Z,9.60
2023-05-17T02:17:17.749Z,9.60
2023-05-17T02:20:06.405Z,9.50
2023-05-17T02:22:53.429Z,9.60
2023-05-17T02:25:40.744Z,9.50
2023-05-17T02:28:28.821Z,9.50
2023-05-17T02:31:15.693Z,9.50
2023-05-17T02:34:02.838Z,9.50
2023-05-17T02:36:52.660Z,9.50
2023-05-17T02:39:39.741Z,9.50
2023-05-17T02:42:26.818Z,9.40
2023-05-17T02:45:16.201Z,9.40
2023-05-17T02:48:03.336Z,9.40
2023-05-17T02:50:51.392Z,9.40
2023-05-17T02:53:40.097Z,9.40
2023-05-17T02:56:27.584Z,9.40
2023-05-17T02:59:14.609Z,9.40
2023-05-17T03:02:03.219Z,9.30
2023-05-17T03:04:50.692Z,9.30
2023-05-17T03:07:37.845Z,9.30
2023-05-17T03:10:26.475Z,9.30
2023-05-17T03:13:13.743Z,9.30
2023-05-17T03:16:00.824Z,9.30
2023-05-17T03:18:49.066Z,9.30
2023-05-17T03:21:36.395Z,9.30
2023-05-17T03:24:24.589Z,9.20
2023-05-17T03:27:13.397Z,9.30
2023-05-17T03:30:00.624Z,9.30
2023-05-17T03:32:48.229Z,9.20
2023-05-17T03:35:35.589Z,9.20
2023-05-17T03:38:23.522Z,9.30
2023-05-17T03:41:13.415Z,9.20
2023-05-17T03:44:03.339Z,9.20
2023-05-17T03:46:51.818Z,9.20
2023-05-17T03:49:39.899Z,9.20
2023-05-17T03:52:27.516Z,9.20
2023-05-17T03:55:14.391Z,9.10
2023-05-17T03:58:01.802Z,9.10
2023-05-17T04:00:51.665Z,9.10
2023-05-17T04:03:40.001Z,9.10
2023-05-17T04:06:27.468Z,9.10
2023-05-17T04:09:15.744Z,9.10
2023-05-17T04:12:02.728Z,9.20
2023-05-17T04:14:50.606Z,9.20
2023-05-17T04:17:39.903Z,9.20
2023-05-17T04:20:27.349Z,9.20
2023-05-17T04:23:16.328Z,9.20
2023-05-17T04:26:04.378Z,9.20
2023-05-17T04:28:54.089Z,9.20
2023-05-17T04:31:43.015Z,9.20
2023-05-17T04:34:32.806Z,9.20
2023-05-17T04:37:21.425Z,9.20
2023-05-17T04:40:13.033Z,9.20
2023-05-17T04:43:00.198Z,9.20
2023-05-17T04:45:47.427Z,9.20
2023-05-17T04:48:35.210Z,9.20
2023-05-17T04:51:24.323Z,9.30
2023-05-17T04:54:12.082Z,9.30
2023-05-17T04:57:00.311Z,9.20
2023-05-17T05:00:10.120Z,9.20
2023-05-17T05:02:59.621Z,9.20
2023-05-17T05:05:46.628Z,9.30
2023-05-17T05:08:37.698Z,9.30
2023-05-17T05:11:27.875Z,9.40
2023-05-17T05:14:15.122Z,9.50
2023-05-17T05:17:03.499Z,9.60
2023-05-17T05:19:50.855Z,9.80
2023-05-17T05:22:38.477Z,9.90
2023-05-17T05:25:27.970Z,10.10
2023-05-17T05:28:15.884Z,10.20
2023-05-17T05:31:03.621Z,10.30
2023-05-17T05:34:01.179Z,10.40
2023-05-17T05:36:49.096Z,10.60
2023-05-17T05:39:36.881Z,10.70
2023-05-17T05:42:25.755Z,10.80
2023-05-17T05:45:13.167Z,10.90
2023-05-17T05:48:04.463Z,10.90
2023-05-17T05:50:52.613Z,11.00
2023-05-17T05:53:40.046Z,11.20
2023-05-17T05:56:28.382Z,11.40
2023-05-17T05:59:17.247Z,11.60
2023-05-17T06:02:05.653Z,11.70
2023-05-17T06:04:53.025Z,11.80
2023-05-17T06:07:40.227Z,11.90
2023-05-17T06:10:27.671Z,11.90
2023-05-17T06:13:14.998Z,12.00
2023-05-17T06:16:03.822Z,12.00
2023-05-17T06:18:51.443Z,12.10
2023-05-17T06:21:38.862Z,12.20
2023-05-17T06:24:26.237Z,12.30
2023-05-17T06:27:14.049Z,12.50
2023-05-17T06:30:01.705Z,12.50
2023-05-17T06:32:50.989Z,12.70
2023-05-17T06:35:54.680Z,12.90
2023-05-17T06:38:43.070Z,13.10
2023-05-17T06:41:30.526Z,13.20
2023-05-17T06:44:17.491Z,13.30
2023-05-17T06:47:04.516Z,13.30
2023-05-17T06:49:53.199Z,13.60
2023-05-17T06:52:40.648Z,13.60
2023-05-17T06:55:29.561Z,13.80
2023-05-17T06:58:17.993Z,14.00
2023-05-17T07:01:06.058Z,14.10
2023-05-17T07:03:53.488Z,14.20
2023-05-17T07:06:42.603Z,14.20
2023-05-17T07:09:30.532Z,14.40
2023-05-17T07:12:17.765Z,14.50
2023-05-17T07:15:04.982Z,14.60
2023-05-17T07:17:52.526Z,14.70
2023-05-17T07:20:40.195Z,14.70
2023-05-17T07:23:28.797Z,14.90
2023-05-17T07:26:16.058Z,15.10
2023-05-17T07:29:03.485Z,15.40
2023-05-17T07:31:50.607Z,15.80
2023-05-17T07:34:38.355Z,16.40
2023-05-17T07:37:25.914Z,17.20
2023-05-17T07:40:14.724Z,17.70
2023-05-17T07:43:02.247Z,17.60
2023-05-17T07:45:49.404Z,17.00
2023-05-17T07:48:37.525Z,16.70
2023-05-17T07:51:24.800Z,16.50
2023-05-17T07:54:14.523Z,16.50
2023-05-17T07:57:03.301Z,17.50
2023-05-17T07:59:50.430Z,18.70
2023-05-17T08:02:38.104Z,19.70
2023-05-17T08:05:25.644Z,20.20
2023-05-17T08:08:12.579Z,19.90
2023-05-17T08:10:59.888Z,20.00
2023-05-17T08:13:48.360Z,20.10
2023-05-17T08:16:36.115Z,21.20
2023-05-17T08:19:23.558Z,21.10
2023-05-17T08:22:11.735Z,20.50
2023-05-17T08:24:58.873Z,19.70
2023-05-17T08:30:35.647Z,18.40
2023-05-17T08:33:24.462Z,19.10
2023-05-17T08:36:11.535Z,20.10
2023-05-17T08:38:58.700Z,20.30
2023-05-17T08:41:47.957Z,19.70
2023-05-17T08:44:35.009Z,20.30
2023-05-17T08:47:30.203Z,20.60
2023-05-17T08:50:17.699Z,22.60
2023-05-17T08:53:05.601Z,24.00
2023-05-17T08:55:54.851Z,24.00
2023-05-17T08:58:56.519Z,23.40
2023-05-17T09:01:46.129Z,23.70
2023-05-17T09:04:35.207Z,25.10
2023-05-17T09:07:23.062Z,26.40
2023-05-17T09:10:11.290Z,27.00
2023-05-17T09:12:58.402Z,27.70
2023-05-17T09:15:48.582Z,28.10
2023-05-17T09:18:36.149Z,28.10
2023-05-17T09:21:25.443Z,28.20
2023-05-17T09:24:12.634Z,28.50
2023-05-17T09:27:03.876Z,27.70
2023-05-17T09:29:50.933Z,26.10
2023-05-17T09:32:44.480Z,25.10
2023-05-17T09:35:32.785Z,25.80
2023-05-17T09:38:27.632Z,26.40
2023-05-17T09:41:14.655Z,25.30
2023-05-17T09:44:03.307Z,23.60
2023-05-17T09:46:50.735Z,23.40
2023-05-17T09:49:37.872Z,22.70
2023-05-17T09:52:25.685Z,21.50
2023-05-17T09:55:15.421Z,21.90
2023-05-17T09:58:04.924Z,22.20
2023-05-17T10:00:54.756Z,21.60
2023-05-17T10:03:42.318Z,20.80
2023-05-17T10:06:45.390Z,19.90
2023-05-17T10:09:38.439Z,19.00
2023-05-17T10:12:48.588Z,18.60
2023-05-17T10:15:38.686Z,18.60
2023-05-17T10:18:27.540Z,18.40
2023-05-17T10:21:16.491Z,18.20
2023-05-17T10:24:04.584Z,18.00
2023-05-17T10:26:52.498Z,17.90
2023-05-17T10:29:42.566Z,17.70
2023-05-17T10:32:30.970Z,17.50
2023-05-17T10:35:18.750Z,17.30
2023-05-17T10:38:06.036Z,17.20
2023-05-17T10:40:54.260Z,17.40
2023-05-17T10:43:43.650Z,17.60
2023-05-17T10:46:32.569Z,17.90
2023-05-17T10:49:24.133Z,18.20
2023-05-17T10:52:14.503Z,18.60
2023-05-17T10:55:02.138Z,18.60
2023-05-17T10:58:16.078Z,18.40
2023-05-17T11:01:07.330Z,18.10
2023-05-17T11:03:58.037Z,17.90
2023-05-17T11:06:45.588Z,17.90
2023-05-17T11:09:34.009Z,17.90
2023-05-17T11:12:33.904Z,17.90
2023-05-17T11:15:26.543Z,18.00
2023-05-17T11:18:29.182Z,17.80
2023-05-17T11:21:19.854Z,17.70
2023-05-17T11:24:08.756Z,17.70
2023-05-17T11:26:56.768Z,17.90
2023-05-17T11:29:48.095Z,18.10
2023-05-17T11:32:35.284Z,18.20
2023-05-17T11:35:27.417Z,18.10
2023-05-17T11:38:19.566Z,18.00
2023-05-17T11:44:11.121Z,17.90
2023-05-17T11:47:07.112Z,17.90
2023-05-17T11:49:56.705Z,17.80
2023-05-17T11:52:44.922Z,17.60
2023-05-17T11:55:33.890Z,17.70
2023-05-17T11:58:25.020Z,17.90
2023-05-17T12:01:12.235Z,18.10
2023-05-17T12:03:59.971Z,18.00
2023-05-17T12:06:47.161Z,17.80
2023-05-17T12:09:35.118Z,17.50
2023-05-17T12:12:23.681Z,17.50
2023-05-17T12:15:12.486Z,17.70
2023-05-17T12:17:59.830Z,17.90
2023-05-17T12:21:01.931Z,18.20
2023-05-17T12:23:52.971Z,18.20
2023-05-17T12:26:45.291Z,18.20
2023-05-17T12:29:33.575Z,18.40
2023-05-17T12:32:21.323Z,18.70
2023-05-17T12:35:11.794Z,19.00
2023-05-17T12:37:58.988Z,19.30
2023-05-17T12:40:47.043Z,19.50
2023-05-17T12:43:35.442Z,19.50
2023-05-17T12:46:25.603Z,19.20
2023-05-17T12:49:13.122Z,18.90
2023-05-17T12:52:06.412Z,18.80
2023-05-17T12:54:53.273Z,18.70
2023-05-17T12:57:40.343Z,18.70
2023-05-17T13:00:27.860Z,18.90
2023-05-17T13:03:16.907Z,19.20
2023-05-17T13:06:06.118Z,19.40
2023-05-17T13:09:00.867Z,19.50
2023-05-17T13:11:52.758Z,19.20
2023-05-17T13:14:45.326Z,19.00
2023-05-17T13:17:40.714Z,18.80
2023-05-17T13:20:29.664Z,18.60
2023-05-17T13:23:17.674Z,18.40
2023-05-17T13:26:04.887Z,18.40
2023-05-17T13:28:52.455Z,18.30
2023-05-17T13:31:41.717Z,18.40
2023-05-17T13:34:28.888Z,18.60
2023-05-17T13:37:17.068Z,18.80
2023-05-17T13:40:04.656Z,19.00
2023-05-17T13:42:54.780Z,19.00
2023-05-17T13:45:43.031Z,19.20
2023-05-17T13:48:30.015Z,19.20
2023-05-17T13:51:18.348Z,19.30
2023-05-17T13:54:07.757Z,19.30
2023-05-17T13:56:55.735Z,19.20
2023-05-17T13:59:45.669Z,19.00
2023-05-17T14:02:33.063Z,19.00
2023-05-17T14:05:20.601Z,18.90
2023-05-17T14:08:07.646Z,18.80
2023-05-17T14:10:56.539Z,18.80
2023-05-17T14:13:43.667Z,19.00
2023-05-17T14:16:31.299Z,19.00
2023-05-17T14:19:18.590Z,19.00
2023-05-17T14:22:05.748Z,18.90
2023-05-17T14:24:52.722Z,18.60
2023-05-17T14:27:41.048Z,18.60
2023-05-17T14:30:28.185Z,18.50
2023-05-17T14:33:15.691Z,18.60
2023-05-17T14:36:03.956Z,18.60
2023-05-17T14:38:51.061Z,18.50
2023-05-17T14:41:39.492Z,18.60
2023-05-17T14:44:28.276Z,18.50
2023-05-17T14:47:16.777Z,18.40
2023-05-17T14:50:17.567Z,18.30
2023-05-17T14:53:04.826Z,18.30
2023-05-17T14:55:52.641Z,18.20
2023-05-17T14:58:40.646Z,18.00
2023-05-17T15:01:29.425Z,17.90
2023-05-17T15:04:17.055Z,17.90
2023-05-17T15:07:04.420Z,17.90
2023-05-17T15:09:51.605Z,17.90
2023-05-17T15:12:39.711Z,17.90
2023-05-17T15:15:27.041Z,17.70
2023-05-17T15:18:16.028Z,17.50
2023-05-17T15:21:03.678Z,17.30
2023-05-17T15:23:51.349Z,17.10
2023-05-17T15:26:39.015Z,16.90
2023-05-17T15:29:25.979Z,16.90
2023-05-17T15:32:12.823Z,16.90
2023-05-17T15:35:01.234Z,16.90
2023-05-17T15:37:48.742Z,16.90
2023-05-17T15:40:35.808Z,17.00
2023-05-17T15:43:22.745Z,17.10
2023-05-17T15:46:10.138Z,17.10
2023-05-17T15:48:58.286Z,17.20
2023-05-17T15:51:46.722Z,17.10
2023-05-17T15:54:34.231Z,17.00
2023-05-17T15:57:21.520Z,17.10
2023-05-17T16:00:10.723Z,17.10
2023-05-17T16:02:57.872Z,17.00
2023-05-17T16:05:45.145Z,16.80
2023-05-17T16:08:33.843Z,16.70
2023-05-17T16:11:23.707Z,16.70
2023-05-17T16:14:10.612Z,16.70
2023-05-17T16:16:57.856Z,16.60
2023-05-17T16:19:44.973Z,16.70
2023-05-17T16:22:32.219Z,16.60
2023-05-17T16:25:22.104Z,16.50
2023-05-17T16:28:09.253Z,16.40
2023-05-17T16:30:56.881Z,16.40
2023-05-17T16:33:43.969Z,16.30
2023-05-17T16:36:31.149Z,16.20
2023-05-17T16:39:18.427Z,16.00
2023-05-17T16:42:07.478Z,15.80
2023-05-17T16:44:54.842Z,15.60
2023-05-17T16:47:42.078Z,15.40
2023-05-17T16:50:29.613Z,15.20
2023-05-17T16:53:17.345Z,15.20
2023-05-17T16:56:04.492Z,15.10
2023-05-17T16:58:53.472Z,15.00
2023-05-17T17:01:40.954Z,14.90
2023-05-17T17:04:28.213Z,14.90
2023-05-17T17:07:15.638Z,14.90
2023-05-17T17:10:02.659Z,14.90
2023-05-17T17:12:50.550Z,14.80
2023-05-17T17:15:39.022Z,14.80
2023-05-17T17:18:26.225Z,14.80
2023-05-17T17:21:13.492Z,14.80
2023-05-17T17:24:03.086Z,14.80
2023-05-17T17:26:50.353Z,14.70
2023-05-17T17:29:37.560Z,14.60
2023-05-17T17:32:27.297Z,14.60
2023-05-17T17:35:14.125Z,14.50
2023-05-17T17:38:03.326Z,14.40
2023-05-17T17:40:50.640Z,14.30
2023-05-17T17:43:37.791Z,14.20
2023-05-17T17:46:26.550Z,14.20
2023-05-17T17:49:15.562Z,14.20
2023-05-17T17:52:02.641Z,14.20
2023-05-17T17:54:49.889Z,14.10
2023-05-17T18:59:27.315Z,12.80
2023-05-17T19:02:14.208Z,12.80
2023-05-17T19:05:01.211Z,12.80
2023-05-17T19:07:48.234Z,12.80
2023-05-17T19:10:35.317Z,12.80
2023-05-17T19:13:23.841Z,12.70
2023-05-17T19:16:10.808Z,12.80
2023-05-17T19:18:57.648Z,12.70
2023-05-17T19:21:44.735Z,12.70
2023-05-17T19:24:32.099Z,12.70
2023-05-17T19:27:19.902Z,12.70
2023-05-17T19:30:10.043Z,12.70
2023-05-17T19:32:57.090Z,12.60
2023-05-17T19:35:44.406Z,12.60
2023-05-17T19:38:33.465Z,12.60
2023-05-17T19:41:20.563Z,12.50
2023-05-17T19:44:07.875Z,12.50
2023-05-17T19:46:56.303Z,12.40
2023-05-17T19:49:43.444Z,12.30
2023-05-17T19:52:30.566Z,12.20
2023-05-17T19:55:22.182Z,12.20
2023-05-17T19:58:09.342Z,12.20
2023-05-17T20:00:56.512Z,12.10
2023-05-17T20:03:45.141Z,12.10
2023-05-17T20:06:32.137Z,12.10
2023-05-17T20:09:19.141Z,12.00
2023-05-17T20:12:07.234Z,12.10
2023-05-17T20:14:55.226Z,12.00
2023-05-17T20:17:42.394Z,12.00
2023-05-17T20:20:31.145Z,11.90
2023-05-17T20:23:18.150Z,11.90
2023-05-17T20:26:05.970Z,11.80
2023-05-17T20:28:53.569Z,11.80
2023-05-17T20:31:41.202Z,11.70
2023-05-17T20:34:29.401Z,11.60
2023-05-17T20:37:17.921Z,11.60
2023-05-17T20:40:08.975Z,11.50
2023-05-17T20:42:56.794Z,11.40
2023-05-17T20:45:46.151Z,11.40
2023-05-17T20:48:32.801Z,11.40
2023-05-17T20:51:19.770Z,11.20
2023-05-17T20:54:08.896Z,11.20
2023-05-17T20:56:55.858Z,11.20
2023-05-17T20:59:42.815Z,11.10
2023-05-17T21:02:30.055Z,11.10
2023-05-17T21:05:17.439Z,11.10
2023-05-17T21:08:04.470Z,11.20
2023-05-17T21:10:52.959Z,11.10
2023-05-17T21:13:40.425Z,11.10
2023-05-17T21:16:27.756Z,11.10
2023-05-17T21:19:14.848Z,11.00
2023-05-17T21:22:01.984Z,11.00
2023-05-17T21:24:50.796Z,11.00
2023-05-17T21:27:39.729Z,11.00
2023-05-17T21:30:26.634Z,10.90
2023-05-17T21:33:14.072Z,10.90
2023-05-17T21:36:01.061Z,10.80
2023-05-17T21:38:48.003Z,10.70
2023-05-17T21:41:35.384Z,10.70
2023-05-17T21:44:23.876Z,10.60
2023-05-17T21:47:11.174Z,10.50
2023-05-17T21:49:58.365Z,10.40
2023-05-17T21:52:45.515Z,10.40
2023-05-17T21:55:41.236Z,10.30
2023-05-17T21:58:38.517Z,10.30
2023-05-17T22:01:27.389Z,10.30
2023-05-17T22:04:14.451Z,10.30
2023-05-17T22:07:01.938Z,10.30
2023-05-17T22:09:49.139Z,10.40
2023-05-17T22:12:38.501Z,10.40
2023-05-17T22:15:26.337Z,10.40
2023-05-17T22:18:14.696Z,10.50
2023-05-17T22:21:02.228Z,10.50
2023-05-17T22:23:49.370Z,10.50
2023-05-17T22:26:36.423Z,10.60
2023-05-17T22:29:23.698Z,10.60
2023-05-17T22:32:11.707Z,10.70
2023-05-17T22:35:00.145Z,10.70
2023-05-17T22:37:47.334Z,10.70
2023-05-17T22:40:34.979Z,10.70
2023-05-17T22:43:22.506Z,10.70
2023-05-17T22:46:09.409Z,10.70
2023-05-17T22:48:58.037Z,10.70
2023-05-17T22:51:46.927Z,10.70
2023-05-17T22:54:34.430Z,10.70
2023-05-17T22:57:21.781Z,10.70
2023-05-17T23:00:11.489Z,10.60
2023-05-17T23:02:59.159Z,10.60
2023-05-17T23:05:47.138Z,10.50
2023-05-17T23:08:35.675Z,10.50
2023-05-17T23:11:23.009Z,10.40
2023-05-17T23:14:11.398Z,10.40
2023-05-17T23:17:02.507Z,10.30
2023-05-17T23:19:51.291Z,10.20
2023-05-17T23:22:39.339Z,10.10
2023-05-17T23:28:18.406Z,10.00
2023-05-17T23:31:05.969Z,10.00
2023-05-17T23:33:53.261Z,9.90
2023-05-17T23:36:41.144Z,9.90
2023-05-17T23:39:28.188Z,9.80
2023-05-17T23:42:16.465Z,9.80
2023-05-17T23:45:04.299Z,9.80
2023-05-17T23:47:51.754Z,9.70
2023-05-17T23:50:39.234Z,9.70
2023-05-17T23:56:18.232Z,9.70
2023-05-17T23:59:06.530Z,9.60
